Time;durP1;ratioP1;P1;durP2;ratioP2;P2;SDS_P1;SDS_P2;PMS_P1;PMS_P2;Temp;Humidity;BMP_temperature;BMP_pressure;BME280_temperature;BME280_humidity;BME280_pressure;Samples;Min_cycle;Max_cycle;Signal;HPM_P1;HPM_P2
2021/11/07 00:03:51;;;;;;;10.97;4.00;;;11.80;99.90;;;;;;5073495;28;20673;-89
2021/11/07 00:06:24;;;;;;;11.97;4.10;;;11.80;99.90;;;;;;5057972;28;20224;-88
2021/11/07 00:08:56;;;;;;;10.70;4.17;;;11.70;99.90;;;;;;5075007;28;20285;-89
2021/11/07 00:11:31;;;;;;;10.67;4.37;;;11.70;99.90;;;;;;5059589;28;20217;-87
2021/11/07 00:13:57;;;;;;;14.80;4.30;;;11.70;99.90;;;;;;5060580;28;20191;-87
2021/11/07 00:16:29;;;;;;;12.07;4.10;;;11.70;99.90;;;;;;5076067;28;20171;-87
2021/11/07 00:19:14;;;;;;;9.33;4.10;;;11.80;99.90;;;;;;5058812;28;20177;-88
2021/11/07 00:21:50;;;;;;;11.50;4.50;;;11.70;99.90;;;;;;5068970;28;20613;-88
2021/11/07 00:29:22;;;;;;;12.07;4.97;;;11.60;99.90;;;;;;5090073;28;20192;-87
2021/11/07 00:37:07;;;;;;;13.90;5.67;;;11.50;99.90;;;;;;5074495;28;20180;-88
2021/11/07 00:44:45;;;;;;;17.17;6.90;;;11.40;99.90;;;;;;5045892;28;20190;-87
2021/11/07 00:50:00;;;;;;;16.13;7.27;;;11.30;99.90;;;;;;5051864;28;20293;-87
2021/11/07 01:00:05;;;;;;;17.03;7.83;;;11.30;99.90;;;;;;5049618;28;20217;-87
2021/11/07 01:02:35;;;;;;;16.30;8.53;;;11.30;99.90;;;;;;5045420;28;20706;-87
2021/11/07 01:05:11;;;;;;;15.80;8.03;;;11.30;99.90;;;;;;5049923;28;20221;-88
2021/11/07 01:07:37;;;;;;;17.77;8.93;;;11.30;99.90;;;;;;5027590;28;20202;-88
2021/11/07 01:10:03;;;;;;;17.37;8.90;;;11.30;99.90;;;;;;5035207;28;20230;-87
2021/11/07 01:12:29;;;;;;;19.20;8.53;;;11.40;99.90;;;;;;5031682;28;20183;-87
2021/11/07 01:14:57;;;;;;;15.80;8.67;;;11.40;99.90;;;;;;5033436;28;20191;-87
2021/11/07 01:17:23;;;;;;;19.67;9.47;;;11.40;99.90;;;;;;5038532;28;20265;-89
2021/11/07 01:19:52;;;;;;;17.30;10.13;;;11.30;99.90;;;;;;5052867;28;20276;-88
2021/11/07 01:22:22;;;;;;;18.23;9.67;;;11.30;99.90;;;;;;5030501;28;20193;-88
2021/11/07 01:24:56;;;;;;;17.13;10.33;;;11.30;99.90;;;;;;5036942;28;20528;-87
2021/11/07 01:27:28;;;;;;;21.07;10.57;;;11.30;99.90;;;;;;5042832;28;20665;-89
2021/11/07 01:29:56;;;;;;;17.10;10.37;;;11.30;99.90;;;;;;5051982;28;20220;-88
2021/11/07 01:32:24;;;;;;;16.13;10.40;;;11.20;99.90;;;;;;5030548;28;20198;-89
2021/11/07 01:37:22;;;;;;;18.10;10.63;;;11.20;99.90;;;;;;5048597;28;20192;-88
2021/11/07 01:39:57;;;;;;;17.43;10.87;;;11.10;99.90;;;;;;5038825;28;20272;-88
2021/11/07 01:42:34;;;;;;;18.63;10.93;;;11.20;99.90;;;;;;5065458;28;20194;-89
2021/11/07 01:45:06;;;;;;;17.87;10.87;;;11.20;99.90;;;;;;5052565;28;20252;-89
2021/11/07 01:47:36;;;;;;;21.40;11.50;;;11.30;99.90;;;;;;5037834;28;20179;-90
2021/11/07 01:50:03;;;;;;;19.50;11.73;;;11.30;99.90;;;;;;5052627;28;20203;-89
2021/11/07 01:52:29;;;;;;;16.30;11.17;;;11.30;99.90;;;;;;5033102;28;20269;-90
2021/11/07 01:54:58;;;;;;;19.60;11.77;;;11.30;99.90;;;;;;5042716;28;20191;-87
2021/11/07 01:57:26;;;;;;;21.10;11.50;;;11.30;99.90;;;;;;5031293;28;20302;-87
2021/11/07 01:59:56;;;;;;;16.67;11.10;;;11.30;99.90;;;;;;5051521;28;20267;-88
2021/11/07 02:02:25;;;;;;;17.43;11.37;;;11.30;99.90;;;;;;5031480;28;20191;-88
2021/11/07 02:04:51;;;;;;;17.37;11.50;;;11.30;99.90;;;;;;5054168;28;20262;-88
2021/11/07 02:07:17;;;;;;;16.20;11.50;;;11.30;99.90;;;;;;5047596;28;20665;-87
2021/11/07 02:09:43;;;;;;;16.27;11.60;;;11.30;99.90;;;;;;5039927;28;20208;-88
2021/11/07 02:12:11;;;;;;;17.13;11.40;;;11.30;99.90;;;;;;5054657;28;20202;-88
2021/11/07 02:14:38;;;;;;;17.53;10.77;;;11.30;99.90;;;;;;5048359;28;20188;-88
2021/11/07 02:17:04;;;;;;;16.47;11.53;;;11.30;99.90;;;;;;5039222;28;20189;-87
2021/11/07 02:19:30;;;;;;;19.10;11.83;;;11.40;99.90;;;;;;5048826;28;20178;-89
2021/11/07 02:21:56;;;;;;;16.97;11.73;;;11.40;99.90;;;;;;5051604;28;20199;-87
2021/11/07 02:24:22;;;;;;;19.38;13.68;;;11.40;99.90;;;;;;5028963;28;20427;-88
2021/11/07 02:26:58;;;;;;;18.10;11.60;;;11.20;99.90;;;;;;5037552;28;20178;-87
2021/11/07 02:29:24;;;;;;;19.63;10.20;;;11.20;99.90;;;;;;5047500;28;20202;-87
2021/11/07 02:31:52;;;;;;;15.97;10.70;;;11.30;99.90;;;;;;5053138;28;20552;-87
2021/11/07 02:34:18;;;;;;;17.53;10.70;;;11.20;99.90;;;;;;5028981;28;20178;-87
2021/11/07 02:36:45;;;;;;;19.57;10.77;;;11.30;99.90;;;;;;5053884;28;20180;-88
2021/11/07 02:39:13;;;;;;;16.37;10.70;;;11.40;99.90;;;;;;5023353;28;20232;-87
2021/11/07 02:41:40;;;;;;;14.13;9.70;;;11.40;99.90;;;;;;5036511;28;20198;-88
2021/11/07 02:44:06;;;;;;;14.23;10.03;;;11.30;99.90;;;;;;5036740;28;20664;-86
2021/11/07 02:46:32;;;;;;;14.47;9.77;;;11.30;99.90;;;;;;5030915;28;20602;-88
2021/11/07 02:49:00;;;;;;;14.87;9.60;;;11.40;99.90;;;;;;5052087;28;20187;-87
2021/11/07 02:51:32;;;;;;;16.40;10.20;;;11.40;99.90;;;;;;5047247;28;20202;-88
2021/11/07 02:54:04;;;;;;;16.00;10.00;;;11.40;99.90;;;;;;5038945;28;20222;-87
2021/11/07 02:56:30;;;;;;;14.30;9.77;;;11.50;99.90;;;;;;5031123;28;20180;-87
2021/11/07 02:58:56;;;;;;;15.47;9.63;;;11.40;99.90;;;;;;5038053;28;20187;-87
2021/11/07 03:01:24;;;;;;;16.70;9.50;;;11.40;99.90;;;;;;5047447;28;20657;-88
2021/11/07 03:03:51;;;;;;;13.43;9.30;;;11.40;99.90;;;;;;5050544;28;20323;-88
2021/11/07 03:06:17;;;;;;;16.37;9.67;;;11.50;99.90;;;;;;5029681;28;20207;-88
2021/11/07 03:08:43;;;;;;;17.43;9.77;;;11.40;99.90;;;;;;5036229;28;20239;-88
2021/11/07 03:11:11;;;;;;;13.43;9.57;;;11.50;99.90;;;;;;5052196;28;20218;-88
2021/11/07 03:13:38;;;;;;;12.47;8.90;;;11.50;99.90;;;;;;5036953;28;20180;-89
2021/11/07 03:16:08;;;;;;;14.23;9.47;;;11.50;99.90;;;;;;5052933;28;20233;-87
2021/11/07 03:18:35;;;;;;;15.60;9.20;;;11.50;99.90;;;;;;5047032;28;20194;-88
2021/11/07 03:21:03;;;;;;;13.13;9.33;;;11.50;99.90;;;;;;5033633;28;20223;-88
2021/11/07 03:23:30;;;;;;;15.00;9.73;;;11.50;99.90;;;;;;5053100;28;20479;-89
2021/11/07 03:26:04;;;;;;;15.10;9.80;;;11.60;99.90;;;;;;5066965;28;20218;-90
2021/11/07 03:28:32;;;;;;;13.70;9.20;;;11.60;99.90;;;;;;5046273;28;20190;-88
2021/11/07 03:33:54;;;;;;;14.07;9.07;;;11.30;99.90;;;;;;5047511;28;20183;-89
2021/11/07 03:36:20;;;;;;;12.63;8.73;;;11.40;99.90;;;;;;5050873;28;20559;-89
2021/11/07 03:38:52;;;;;;;13.17;8.40;;;11.40;99.90;;;;;;5052626;28;20218;-87
2021/11/07 03:41:19;;;;;;;12.10;7.97;;;11.40;99.90;;;;;;5041005;28;20227;-89
2021/11/07 03:43:45;;;;;;;13.73;9.17;;;11.50;99.90;;;;;;5053161;28;20277;-86
2021/11/07 03:46:12;;;;;;;12.13;8.33;;;11.50;99.90;;;;;;5032504;28;20259;-89
2021/11/07 03:48:40;;;;;;;11.43;8.10;;;11.60;99.90;;;;;;5051195;28;20669;-88
2021/11/07 03:51:07;;;;;;;11.23;7.23;;;11.50;99.90;;;;;;5049506;28;20693;-87
2021/11/07 03:53:33;;;;;;;10.20;7.10;;;11.50;99.90;;;;;;5030707;28;20188;-87
2021/11/07 03:56:00;;;;;;;10.90;7.40;;;11.50;99.90;;;;;;5053260;28;20188;-87
2021/11/07 03:58:26;;;;;;;11.90;6.90;;;11.60;99.90;;;;;;5031003;28;20236;-86
2021/11/07 04:00:52;;;;;;;11.67;7.30;;;11.50;99.90;;;;;;5052134;28;20203;-87
2021/11/07 04:03:18;;;;;;;11.70;7.20;;;11.50;99.90;;;;;;5033249;28;20194;-87
2021/11/07 04:05:44;;;;;;;11.90;7.77;;;11.50;99.90;;;;;;5050351;28;20849;-87
2021/11/07 04:08:10;;;;;;;12.70;8.30;;;11.60;99.90;;;;;;5047112;28;20206;-88
2021/11/07 04:10:36;;;;;;;12.80;8.70;;;11.60;99.90;;;;;;5050857;28;20289;-87
2021/11/07 04:13:05;;;;;;;14.03;8.50;;;11.50;99.90;;;;;;5046824;28;20590;-88
2021/11/07 04:15:31;;;;;;;13.10;8.87;;;11.50;99.90;;;;;;5040714;28;20270;-87
2021/11/07 04:17:58;;;;;;;14.77;9.10;;;11.60;99.90;;;;;;5034464;28;20194;-88
2021/11/07 04:20:24;;;;;;;14.23;9.73;;;11.60;99.90;;;;;;5046141;28;20194;-87
2021/11/07 04:22:49;;;;;;;15.50;10.37;;;11.60;99.90;;;;;;5036496;28;20190;-87
2021/11/07 04:25:15;;;;;;;15.00;10.40;;;11.70;99.90;;;;;;5028899;28;20602;-86
2021/11/07 04:27:41;;;;;;;15.27;11.07;;;11.70;99.90;;;;;;5032496;28;20191;-86
2021/11/07 04:30:08;;;;;;;15.43;11.07;;;11.70;99.90;;;;;;5050493;28;20574;-87
2021/11/07 04:32:34;;;;;;;16.20;11.70;;;11.80;99.90;;;;;;5045172;28;20956;-86
2021/11/07 04:35:00;;;;;;;19.17;13.30;;;11.90;99.90;;;;;;5050253;28;20182;-87
2021/11/07 04:37:26;;;;;;;16.57;12.37;;;11.90;99.90;;;;;;5030667;28;20184;-88
2021/11/07 04:39:52;;;;;;;20.70;13.47;;;11.90;99.90;;;;;;5066621;28;20574;-87
2021/11/07 04:42:18;;;;;;;21.63;12.90;;;11.90;99.90;;;;;;5027754;28;20188;-87
2021/11/07 04:44:44;;;;;;;19.50;12.37;;;12.00;99.90;;;;;;5035519;28;20198;-88
2021/11/07 04:47:10;;;;;;;19.13;13.83;;;12.00;99.90;;;;;;5042190;28;20563;-88
2021/11/07 04:49:36;;;;;;;20.27;13.17;;;12.10;99.90;;;;;;5051512;28;20196;-88
2021/11/07 04:52:02;;;;;;;22.30;13.67;;;12.10;99.90;;;;;;5034792;28;20188;-87
2021/11/07 04:54:29;;;;;;;22.67;14.20;;;12.00;99.90;;;;;;5029900;28;20724;-87
2021/11/07 04:56:55;;;;;;;19.00;13.43;;;12.10;99.90;;;;;;5049377;28;20208;-88
2021/11/07 04:59:22;;;;;;;21.00;13.07;;;12.10;99.90;;;;;;5031522;28;20205;-88
2021/11/07 05:01:48;;;;;;;20.30;13.57;;;12.20;99.90;;;;;;5050886;28;20207;-87
2021/11/07 05:04:14;;;;;;;21.23;13.67;;;12.20;99.90;;;;;;5028718;28;20665;-87
2021/11/07 05:06:39;;;;;;;17.80;12.63;;;12.20;99.90;;;;;;5035202;28;20185;-86
2021/11/07 05:09:05;;;;;;;19.60;13.13;;;12.30;99.90;;;;;;5050715;28;20204;-87
2021/11/07 05:11:32;;;;;;;17.50;12.57;;;12.30;99.90;;;;;;5033875;28;20207;-87
2021/11/07 05:13:59;;;;;;;16.27;11.83;;;12.30;99.90;;;;;;5039323;28;20181;-86
2021/11/07 05:16:25;;;;;;;19.53;13.20;;;12.30;99.90;;;;;;5052388;28;20188;-89
2021/11/07 05:18:51;;;;;;;17.20;12.50;;;12.30;99.90;;;;;;5043195;28;20253;-86
2021/11/07 05:21:16;;;;;;;20.00;12.37;;;12.30;99.90;;;;;;5031875;28;20215;-86
2021/11/07 05:23:42;;;;;;;17.33;12.27;;;12.40;99.90;;;;;;5055174;28;20226;-87
2021/11/07 05:26:08;;;;;;;17.33;11.47;;;12.30;99.90;;;;;;5053403;28;20192;-88
2021/11/07 05:28:35;;;;;;;18.07;12.03;;;12.30;99.90;;;;;;5049891;28;20184;-88
2021/11/07 05:31:02;;;;;;;16.50;11.77;;;12.30;99.90;;;;;;5037596;28;20200;-87
2021/11/07 05:33:29;;;;;;;18.10;12.30;;;12.30;99.90;;;;;;5033854;28;20267;-88
2021/11/07 05:35:55;;;;;;;19.00;11.63;;;12.40;99.90;;;;;;5066895;28;20191;-89
2021/11/07 05:38:20;;;;;;;18.07;11.63;;;12.40;99.90;;;;;;5049528;28;20343;-86
2021/11/07 05:40:47;;;;;;;18.60;12.30;;;12.30;99.90;;;;;;5058882;28;20184;-86
2021/11/07 05:43:13;;;;;;;17.23;11.80;;;12.30;99.90;;;;;;5047753;28;20733;-86
2021/11/07 05:45:39;;;;;;;17.97;12.57;;;12.20;99.90;;;;;;5058854;28;20178;-87
2021/11/07 05:48:08;;;;;;;19.27;11.50;;;12.30;99.90;;;;;;5075941;28;20618;-88
2021/11/07 05:50:34;;;;;;;18.77;12.13;;;12.30;99.90;;;;;;5053911;28;20735;-86
2021/11/07 05:53:00;;;;;;;20.23;12.30;;;12.30;99.90;;;;;;5059860;28;20183;-87
2021/11/07 05:55:26;;;;;;;16.27;11.93;;;12.30;99.90;;;;;;5069290;28;20646;-88
2021/11/07 05:57:52;;;;;;;20.83;12.23;;;12.30;99.90;;;;;;5058705;28;20190;-85
2021/11/07 06:00:19;;;;;;;16.97;12.77;;;12.30;99.90;;;;;;5069398;28;20187;-86
2021/11/07 06:02:46;;;;;;;20.83;12.57;;;12.30;99.90;;;;;;5075937;28;20184;-87
2021/11/07 06:05:13;;;;;;;20.13;11.97;;;12.40;99.90;;;;;;5050658;28;20182;-88
2021/11/07 06:07:39;;;;;;;17.07;12.17;;;12.20;99.90;;;;;;5076422;28;20186;-87
2021/11/07 06:10:05;;;;;;;19.77;12.67;;;12.10;99.90;;;;;;5074485;28;20283;-88
2021/11/07 06:12:31;;;;;;;20.40;12.50;;;12.10;99.90;;;;;;5053988;28;20190;-87
2021/11/07 06:14:57;;;;;;;18.83;12.30;;;12.00;99.90;;;;;;5080348;28;20258;-87
2021/11/07 06:17:23;;;;;;;18.57;12.33;;;12.10;99.90;;;;;;5066464;28;20559;-87
2021/11/07 06:19:48;;;;;;;19.40;13.33;;;12.30;99.90;;;;;;5074961;28;20190;-88
2021/11/07 06:22:14;;;;;;;21.57;13.10;;;12.30;99.90;;;;;;5050755;28;20188;-88
2021/11/07 06:24:40;;;;;;;19.43;12.60;;;12.30;99.90;;;;;;5075238;28;20226;-88
2021/11/07 06:27:07;;;;;;;19.70;12.83;;;12.30;99.90;;;;;;5058911;28;20179;-91
2021/11/07 06:29:32;;;;;;;18.87;12.40;;;12.30;99.90;;;;;;5068507;28;20202;-89
2021/11/07 06:31:59;;;;;;;22.27;13.43;;;12.40;99.90;;;;;;5072078;28;20179;-88
2021/11/07 06:34:26;;;;;;;21.23;12.67;;;12.40;99.90;;;;;;5048173;28;20176;-89
2021/11/07 06:36:53;;;;;;;22.97;13.30;;;12.40;99.90;;;;;;5061230;28;20538;-91
2021/11/07 06:39:19;;;;;;;20.77;13.07;;;12.30;99.90;;;;;;5055891;28;20262;-88
2021/11/07 06:41:45;;;;;;;18.53;11.87;;;12.40;99.90;;;;;;5036736;28;20764;-89
2021/11/07 06:44:12;;;;;;;20.77;13.70;;;12.30;99.90;;;;;;5020075;28;20196;-89
2021/11/07 06:46:38;;;;;;;20.37;12.43;;;12.20;99.90;;;;;;5049853;28;22227;-88
2021/11/07 06:49:07;;;;;;;20.53;13.17;;;12.20;99.90;;;;;;5053149;28;20269;-89
2021/11/07 06:51:33;;;;;;;22.33;13.00;;;12.30;99.90;;;;;;5046685;28;20254;-89
2021/11/07 06:54:00;;;;;;;19.60;12.80;;;12.10;99.90;;;;;;5038280;28;20255;-89
2021/11/07 06:56:31;;;;;;;20.60;12.50;;;12.00;99.90;;;;;;5030688;28;20185;-89
2021/11/07 06:58:57;;;;;;;23.90;13.27;;;12.00;99.90;;;;;;5051843;28;20185;-88
2021/11/07 07:01:24;;;;;;;18.90;12.30;;;12.10;99.90;;;;;;5046367;28;20196;-89
2021/11/07 07:03:49;;;;;;;19.00;12.93;;;12.20;99.90;;;;;;5051801;28;20214;-90
2021/11/07 07:06:17;;;;;;;21.00;12.63;;;12.30;99.90;;;;;;5030633;28;20208;-89
2021/11/07 07:08:52;;;;;;;20.77;12.87;;;12.50;99.90;;;;;;5037278;28;20250;-88
2021/11/07 07:11:26;;;;;;;22.63;12.47;;;12.60;99.90;;;;;;5049764;28;20759;-88
2021/11/07 07:14:29;;;;;;;21.43;12.23;;;12.70;99.90;;;;;;5035117;28;20267;-91
2021/11/07 07:16:54;;;;;;;21.10;12.57;;;12.70;99.90;;;;;;5043741;28;20184;-89
2021/11/07 07:30:15;;;;;;;20.80;9.93;;;12.60;99.90;;;;;;5020607;28;20223;-89
2021/11/07 07:35:11;;;;;;;15.77;9.67;;;12.50;99.90;;;;;;5068506;28;20191;-89
2021/11/07 07:37:38;;;;;;;18.27;10.53;;;12.60;99.90;;;;;;5048553;28;20210;-88
2021/11/07 07:40:06;;;;;;;20.07;10.30;;;12.70;99.90;;;;;;5052771;28;20247;-88
2021/11/07 07:42:32;;;;;;;15.00;10.10;;;12.80;99.90;;;;;;5052138;28;20192;-89
2021/11/07 07:45:01;;;;;;;20.43;11.00;;;12.80;99.90;;;;;;5049795;28;20242;-91
2021/11/07 07:47:27;;;;;;;20.70;10.30;;;12.90;99.90;;;;;;5030941;28;20666;-88
2021/11/07 07:49:54;;;;;;;18.13;9.50;;;13.00;99.90;;;;;;5053063;28;20212;-91
2021/11/07 07:52:27;;;;;;;19.43;8.67;;;13.00;99.90;;;;;;5028801;28;20185;-89
2021/11/07 07:54:54;;;;;;;14.90;8.47;;;13.00;99.90;;;;;;5038141;28;20176;-89
2021/11/07 07:57:20;;;;;;;19.77;8.60;;;13.10;99.90;;;;;;5043755;28;20176;-89
2021/11/07 07:59:46;;;;;;;19.57;8.30;;;13.20;99.90;;;;;;5052545;28;20524;-89
2021/11/07 08:02:12;;;;;;;18.93;8.17;;;13.10;99.90;;;;;;5043698;28;20655;-89
2021/11/07 08:04:37;;;;;;;16.07;7.83;;;13.20;99.90;;;;;;5052322;28;20614;-89
2021/11/07 08:07:03;;;;;;;21.43;8.20;;;13.20;99.90;;;;;;5052696;28;20241;-91
2021/11/07 08:09:29;;;;;;;19.60;7.67;;;13.10;99.90;;;;;;5033461;28;20188;-90
2021/11/07 08:11:55;;;;;;;15.43;7.23;;;13.10;99.90;;;;;;5052578;28;20318;-89
2021/11/07 08:14:21;;;;;;;15.67;7.73;;;13.10;99.90;;;;;;5033976;28;20189;-89
2021/11/07 08:16:47;;;;;;;16.80;7.20;;;13.20;99.90;;;;;;5051183;28;20187;-89
2021/11/07 08:19:14;;;;;;;18.10;8.00;;;13.10;99.90;;;;;;5042992;28;20185;-88
2021/11/07 08:21:41;;;;;;;18.80;8.60;;;13.00;99.90;;;;;;5035568;28;20196;-90
2021/11/07 08:24:10;;;;;;;15.80;8.10;;;13.10;99.90;;;;;;5053094;28;20189;-89
2021/11/07 08:26:40;;;;;;;19.27;8.37;;;13.20;99.90;;;;;;5043485;28;20202;-88
2021/11/07 08:29:07;;;;;;;18.27;8.27;;;13.30;99.90;;;;;;5051059;28;20254;-89
2021/11/07 08:31:35;;;;;;;17.50;7.67;;;13.20;99.90;;;;;;5024461;28;20212;-88
2021/11/07 08:34:04;;;;;;;16.83;7.57;;;13.10;99.90;;;;;;5051569;28;20188;-90
2021/11/07 08:36:38;;;;;;;18.50;8.03;;;13.10;99.90;;;;;;5032678;28;20194;-90
2021/11/07 08:39:11;;;;;;;13.87;6.87;;;13.20;99.90;;;;;;5048624;28;20229;-87
2021/11/07 08:41:44;;;;;;;16.17;7.13;;;13.10;99.90;;;;;;5019302;28;20189;-87
2021/11/07 09:00:31;;;;;;;19.63;4.67;;;13.40;99.90;;;;;;5050555;28;20282;-89
2021/11/07 09:08:16;;;;;;;19.30;6.13;;;13.70;99.90;;;;;;5049433;28;20196;-89
2021/11/07 09:10:43;;;;;;;15.83;4.50;;;13.70;99.90;;;;;;5029926;28;20294;-87
2021/11/07 09:13:10;;;;;;;25.17;7.80;;;13.40;99.90;;;;;;5049401;28;20190;-88
2021/11/07 09:15:39;;;;;;;16.67;4.73;;;13.50;99.90;;;;;;5054288;28;20188;-89
2021/11/07 09:18:06;;;;;;;20.80;4.90;;;13.60;99.90;;;;;;5052021;28;20193;-89
2021/11/07 09:20:52;;;;;;;15.93;3.50;;;13.60;99.90;;;;;;5064467;28;20196;-91
2021/11/07 09:23:45;;;;;;;19.87;3.87;;;13.70;99.90;;;;;;5038259;28;20190;-88
2021/11/07 09:26:17;;;;;;;17.73;3.90;;;13.60;99.90;;;;;;5051367;28;20358;-89
2021/11/07 09:32:06;;;;;;;13.50;2.93;;;13.90;99.90;;;;;;5056176;28;20219;-91
2021/11/07 09:34:23;;;;;;;15.83;2.97;;;14.00;99.90;;;;;;5041498;28;20245;-90
2021/11/07 09:37:09;;;;;;;16.00;2.90;;;13.90;99.90;;;;;;5050113;28;20191;-89
2021/11/07 09:39:48;;;;;;;14.33;2.83;;;14.00;99.90;;;;;;5049950;28;20274;-89
2021/11/07 09:42:34;;;;;;;16.27;3.07;;;14.00;99.90;;;;;;5051679;28;20200;-89
2021/11/07 09:45:10;;;;;;;18.97;3.33;;;14.00;99.90;;;;;;5061552;28;20308;-90
2021/11/07 09:47:39;;;;;;;15.27;2.83;;;13.80;99.90;;;;;;5035389;28;20633;-88
2021/11/07 09:50:06;;;;;;;15.23;3.00;;;13.70;99.90;;;;;;5033192;28;20214;-89
2021/11/07 09:52:40;;;;;;;22.33;3.97;;;13.60;99.90;;;;;;5025823;28;20268;-88
2021/11/07 09:55:07;;;;;;;20.03;3.00;;;13.70;99.90;;;;;;5049457;28;20202;-88
2021/11/07 09:57:34;;;;;;;19.97;3.53;;;14.00;99.90;;;;;;5054393;28;20236;-93
2021/11/07 10:00:03;;;;;;;17.40;3.20;;;14.20;99.90;;;;;;5054158;28;20196;-89
2021/11/07 10:02:38;;;;;;;17.43;3.60;;;14.10;99.90;;;;;;5055711;28;20202;-88
2021/11/07 10:05:05;;;;;;;22.03;3.07;;;14.40;99.90;;;;;;5054295;28;20367;-89
2021/11/07 10:07:34;;;;;;;19.03;3.30;;;14.20;99.90;;;;;;5052900;28;20207;-88
2021/11/07 10:10:14;;;;;;;22.93;3.30;;;14.30;99.90;;;;;;5054981;28;20242;-88
2021/11/07 10:12:47;;;;;;;22.83;3.30;;;14.20;99.90;;;;;;5048066;28;20205;-88
2021/11/07 10:15:52;;;;;;;16.00;2.97;;;14.00;99.90;;;;;;5056141;28;20192;-89
2021/11/07 10:18:30;;;;;;;16.37;3.17;;;14.10;99.90;;;;;;5045864;28;20638;-88
2021/11/07 10:20:59;;;;;;;19.73;3.73;;;14.20;99.90;;;;;;5038753;28;20667;-89
2021/11/07 10:23:32;;;;;;;21.37;2.73;;;14.20;99.90;;;;;;5028349;28;20201;-89
2021/11/07 10:28:46;;;;;;;18.50;3.17;;;14.10;99.90;;;;;;5056949;28;20215;-88
2021/11/07 10:34:05;;;;;;;17.93;2.70;;;14.50;99.90;;;;;;5047657;28;20252;-89
2021/11/07 10:42:12;;;;;;;26.37;3.80;;;15.10;99.90;;;;;;5066717;28;20189;-91
2021/11/07 10:53:14;;;;;;;19.90;2.97;;;15.20;99.90;;;;;;5068990;28;20732;-90
2021/11/07 10:55:49;;;;;;;18.43;2.93;;;15.00;99.90;;;;;;5032737;28;20178;-91
2021/11/07 10:58:15;;;;;;;18.97;2.70;;;14.80;99.90;;;;;;5055158;28;20287;-90
2021/11/07 11:00:43;;;;;;;22.23;3.10;;;14.70;99.90;;;;;;5049710;28;20224;-89
2021/11/07 11:03:16;;;;;;;20.20;3.10;;;14.60;99.90;;;;;;5067287;28;20281;-91
2021/11/07 11:05:59;;;;;;;13.93;2.57;;;14.50;99.90;;;;;;5048198;28;20188;-89
2021/11/07 11:08:37;;;;;;;17.23;2.60;;;14.30;99.90;;;;;;5052186;28;20729;-90
2021/11/07 11:14:10;;;;;;;31.97;11.23;;;14.30;99.90;;;;;;5016762;28;20239;-88
2021/11/07 11:35:36;;;;;;;18.83;3.00;;;14.10;99.90;;;;;;5058835;28;20184;-90
2021/11/07 11:46:10;;;;;;;21.10;3.30;;;13.90;99.90;;;;;;5066889;28;20615;-89
2021/11/07 12:05:25;;;;;;;18.97;3.10;;;14.00;99.90;;;;;;5073931;28;20188;-88
2021/11/07 12:08:40;;;;;;;21.37;2.87;;;14.30;99.90;;;;;;5057286;28;20191;-90
2021/11/07 12:11:28;;;;;;;17.37;3.10;;;14.20;99.90;;;;;;5023337;28;20696;-95
2021/11/07 12:14:20;;;;;;;15.20;2.43;;;14.30;99.90;;;;;;5066446;28;20241;-87
2021/11/07 12:16:58;;;;;;;14.13;2.80;;;14.00;99.90;;;;;;5073251;28;20187;-89
2021/11/07 12:19:40;;;;;;;18.70;3.07;;;13.80;99.90;;;;;;5072263;28;20184;-88
2021/11/07 12:22:08;;;;;;;22.90;3.00;;;13.90;99.90;;;;;;5082960;28;20204;-89
2021/11/07 12:24:49;;;;;;;19.53;2.93;;;13.90;99.90;;;;;;5058347;28;20661;-87
2021/11/07 12:27:18;;;;;;;19.57;3.00;;;13.90;99.90;;;;;;5052931;28;20191;-88
2021/11/07 12:29:45;;;;;;;16.87;3.17;;;13.90;99.90;;;;;;5066718;28;20282;-88
2021/11/07 12:32:12;;;;;;;18.57;2.77;;;13.80;99.90;;;;;;5072821;28;20188;-87
2021/11/07 12:35:10;;;;;;;19.53;3.17;;;13.70;99.90;;;;;;5059154;28;20178;-90
2021/11/07 12:40:45;;;;;;;19.80;3.20;;;14.00;99.90;;;;;;5091254;28;20242;-89
2021/11/07 12:43:50;;;;;;;26.40;4.23;;;14.00;99.90;;;;;;5056900;28;20244;-88
2021/11/07 12:49:18;;;;;;;18.00;2.97;;;14.00;99.90;;;;;;5066429;28;20198;-88
2021/11/07 12:51:58;;;;;;;22.63;3.40;;;14.00;99.90;;;;;;5059625;28;20234;-88
2021/11/07 12:54:26;;;;;;;22.83;3.87;;;13.90;99.90;;;;;;5067150;28;20190;-89
2021/11/07 12:57:03;;;;;;;27.27;3.70;;;13.80;99.90;;;;;;5070361;28;20181;-88
2021/11/07 12:59:37;;;;;;;19.03;3.00;;;13.60;99.90;;;;;;5066037;28;20190;-87
2021/11/07 13:02:07;;;;;;;18.53;3.60;;;13.50;99.90;;;;;;5056273;28;20289;-88
2021/11/07 13:04:43;;;;;;;19.27;3.50;;;13.40;99.90;;;;;;5078435;28;20217;-90
2021/11/07 13:07:12;;;;;;;21.27;3.33;;;13.30;99.90;;;;;;5086385;28;20186;-88
2021/11/07 13:09:46;;;;;;;20.10;2.80;;;13.40;99.90;;;;;;5073518;28;20185;-90
2021/11/07 13:12:28;;;;;;;25.50;3.50;;;13.30;99.90;;;;;;5073058;28;20214;-87
2021/11/07 13:15:38;;;;;;;18.27;2.43;;;13.40;99.90;;;;;;5056258;28;20205;-88
2021/11/07 13:31:16;;;;;;;26.87;3.77;;;13.60;99.90;;;;;;5080589;28;20221;-89
2021/11/07 13:33:44;;;;;;;20.60;3.70;;;13.50;99.90;;;;;;5069928;28;20183;-87
2021/11/07 13:36:12;;;;;;;18.30;3.10;;;13.70;99.90;;;;;;5079304;28;20186;-89
2021/11/07 13:38:50;;;;;;;29.40;3.40;;;13.80;99.90;;;;;;5082561;28;20219;-87
2021/11/07 13:41:24;;;;;;;17.17;2.87;;;13.80;99.90;;;;;;5081114;28;20194;-91
2021/11/07 13:44:07;;;;;;;20.47;3.20;;;13.70;99.90;;;;;;5077471;28;20181;-90
2021/11/07 13:46:35;;;;;;;24.77;3.20;;;13.70;99.90;;;;;;5059171;28;20706;-91
2021/11/07 13:49:06;;;;;;;21.73;4.10;;;13.50;99.90;;;;;;5077354;28;20187;-89
2021/11/07 13:51:56;;;;;;;21.33;3.83;;;13.50;99.90;;;;;;5074430;28;20200;-90
2021/11/07 13:54:23;;;;;;;21.00;3.40;;;13.40;99.90;;;;;;5075398;28;20188;-91
2021/11/07 13:56:51;;;;;;;21.73;3.60;;;13.40;99.90;;;;;;5061151;28;20174;-87
2021/11/07 13:59:47;;;;;;;25.60;3.60;;;13.40;99.90;;;;;;5062001;28;20187;-88
2021/11/07 14:02:17;;;;;;;19.30;2.97;;;13.40;99.90;;;;;;5051442;28;20298;-90
2021/11/07 14:04:47;;;;;;;25.33;3.70;;;13.50;99.90;;;;;;5076572;28;20239;-88
2021/11/07 14:07:14;;;;;;;24.17;3.70;;;13.70;99.90;;;;;;5078109;28;20195;-88
2021/11/07 14:09:55;;;;;;;22.57;3.57;;;13.80;99.90;;;;;;5076225;28;20180;-89
2021/11/07 14:12:33;;;;;;;29.87;4.33;;;13.70;99.90;;;;;;5077651;28;20235;-87
2021/11/07 14:15:23;;;;;;;30.00;4.30;;;13.90;99.90;;;;;;5076181;28;20210;-90
2021/11/07 14:17:52;;;;;;;24.13;3.70;;;13.60;99.90;;;;;;5081109;28;20192;-88
2021/11/07 14:20:47;;;;;;;21.60;3.10;;;13.70;99.90;;;;;;5076531;28;20184;-88
2021/11/07 14:23:35;;;;;;;23.37;3.50;;;13.80;99.90;;;;;;5075224;28;20187;-91
2021/11/07 14:26:16;;;;;;;21.37;3.23;;;13.80;99.90;;;;;;5060233;28;20188;-91
2021/11/07 14:32:07;;;;;;;21.63;3.10;;;13.50;99.90;;;;;;5075392;28;20272;-90
2021/11/07 14:34:53;;;;;;;24.47;3.33;;;13.40;99.90;;;;;;5076085;28;20178;-92
2021/11/07 14:37:30;;;;;;;23.77;3.60;;;13.60;99.90;;;;;;5076172;28;20710;-89
2021/11/07 14:43:16;;;;;;;23.93;3.13;;;13.10;99.90;;;;;;5076257;28;20195;-95
2021/11/07 14:59:48;;;;;;;19.27;3.10;;;12.90;99.90;;;;;;5090680;28;20656;-90
2021/11/07 15:05:26;;;;;;;27.00;3.53;;;12.80;99.90;;;;;;5089860;28;20527;-90
2021/11/07 15:08:06;;;;;;;19.90;3.27;;;12.70;99.90;;;;;;5073629;28;20190;-91
2021/11/07 15:10:45;;;;;;;19.13;3.50;;;12.80;99.90;;;;;;5074913;28;20217;-90
2021/11/07 15:14:25;;;;;;;21.03;3.50;;;12.60;99.90;;;;;;5073963;28;20286;-92
2021/11/07 15:21:48;;;;;;;22.93;4.00;;;12.60;99.90;;;;;;5074425;28;20211;-91
2021/11/07 15:24:26;;;;;;;24.70;3.57;;;12.30;99.90;;;;;;5075779;28;20233;-90
2021/11/07 15:26:58;;;;;;;23.63;3.67;;;12.20;99.90;;;;;;5057752;28;20218;-90
2021/11/07 15:29:29;;;;;;;24.07;4.07;;;12.00;99.90;;;;;;5075606;28;20183;-91
2021/11/07 15:32:02;;;;;;;28.53;3.80;;;11.80;99.90;;;;;;5057412;28;20233;-89
2021/11/07 15:34:34;;;;;;;21.20;3.37;;;11.90;99.90;;;;;;5077854;28;20183;-91
2021/11/07 15:37:01;;;;;;;22.30;3.20;;;12.00;99.90;;;;;;5059218;28;20195;-94
2021/11/07 15:39:29;;;;;;;19.70;3.20;;;11.80;99.90;;;;;;5057327;28;20311;-92
2021/11/07 15:42:13;;;;;;;22.20;3.53;;;11.70;99.90;;;;;;5075137;28;20542;-90
2021/11/07 15:44:51;;;;;;;17.80;3.40;;;11.60;99.90;;;;;;5072972;28;20186;-91
2021/11/07 15:47:20;;;;;;;24.13;4.10;;;11.40;99.90;;;;;;5074496;28;20193;-89
2021/11/07 15:52:48;;;;;;;23.43;3.60;;;11.50;99.90;;;;;;5089085;28;20206;-90
2021/11/07 15:55:13;;;;;;;21.63;3.40;;;11.60;99.90;;;;;;5072133;28;20191;-90
2021/11/07 16:00:32;;;;;;;23.40;3.73;;;11.40;99.90;;;;;;5074008;28;20202;-91
2021/11/07 16:11:04;;;;;;;23.57;4.40;;;11.40;99.90;;;;;;5075337;28;20294;-90